Friday, February 23, 2018, 6:43 PM GMT
Back to Local

CXSH, Shawinigan CS , Que.

Location: , , Canada Lat: 46.583
Local Time: 6:43 PM GMT (18:43 GMT) Lon: -72.583
Time Zone: GMT Elev: 360 ft

Show me the last for .
Show Coded

Time T Td Feel RH Dir Speed Gust Alt SLP Vis Weather Sky Remarks
2018-02-23 18:00 23 8 15 53 100° 6 - - 30.38 0 Pressure falling rapidly
2018-02-23 17:00 20 9 15 62 60° 3 - - 30.46 0 Pressure falling rapidly
2018-02-23 16:00 16 8 7 71 40° 6 - - 30.53 0 Pressure falling rapidly
2018-02-23 15:00 12 7 3 78 60° 6 - - 30.60 0 None
2018-02-23 14:00 8 3 - 79 40° 1 - - 30.64 0 None
2018-02-23 13:00 4 -1 - 79 350° 2 - - 30.66 0 None
2018-02-23 12:00 2 -3 - 81 10° 1 - - 30.68 0 None
2018-02-23 11:00 2 -2 - 82 10° 2 - - 30.69 0 None
2018-02-23 10:00 2 1 - 91 30° 1 - - 30.71 0 None
2018-02-23 09:00 2 -2 - 82 20° 2 - - 30.71 0 None
2018-02-23 08:00 4 0 - 84 60° 2 - - 30.72 0 None
2018-02-23 07:00 6 2 - 82 350° 2 - - 30.73 0 None
2018-02-23 06:00 7 3 - 81 330° 2 - - - 0 None
2018-02-23 05:00 8 5 - 84 10° 1 - - - 0 None
2018-02-23 04:00 10 5 - 81 320° 1 - - - 0 None
2018-02-23 03:00 10 6 - 82 320° 2 - - - 0 None
2018-02-23 02:00 11 7 - 80 310° 1 - - - 0 None
2018-02-23 01:00 14 8 - 77 320° 1 - - - 0 None
2018-02-23 00:00 16 8 - 71 - Calm - - - 0 None
2018-02-22 23:00 18 9 - 65 240° 2 - - - 0 None
2018-02-22 22:00 20 8 11 59 210° 7 - - - 0 None
2018-02-22 21:00 22 9 13 55 190° 7 - - - 0 None
2018-02-22 20:00 22 9 15 55 180° 6 - - - 0 None
2018-02-22 19:00 22 9 15 57 190° 5 - - - 0 None

Support USWX by starting your Amazon purchase here.